Murray, KY

5:08 PM CST on December 16, 2017 (GMT -0600)
Kyle-Oakley

Weather History for KCEY - January, 2013

Change the Weather History Date:

Sunday, January 13, 2013

  Actual Average (KPAH) Record (KPAH)
Temperature  
Mean Temperature 47 °F -  
Max Temperature 68 °F 41 °F 68 °F (1995)
Min Temperature 26 °F 22 °F 0 °F (1977)
Degree Days  
Heating Degree Days 18    
Moisture  
Dew Point 34 °F    
Average Humidity 91    
Maximum Humidity 100    
Minimum Humidity 80    
Precipitation  
Precipitation 2.09 in - - ()
Sea Level Pressure  
Sea Level Pressure 30.04 in    
Wind  
Wind Speed 13 mph (North)    
Max Wind Speed 20 mph    
Max Gust Speed 29 mph    
Visibility 7 miles    
Events      
Averages and records for this station are not official NWS values.
T = Trace of Precipitation, MM = Missing Value Source: NWS Daily Summary

Daily Weather History Graph

Daily Weather History Graph

Search for Another Location

Airport or City:

Trip Planner

Search our weather history database for the weather conditions in past years. The results will help you decide how hot, cold, wet, or windy it might be!

Date:

Astronomy

Jan. 13, 2013 Rise Set
Actual Time 7:05 AM CST 4:59 PM CST
Civil Twilight 6:37 AM CST 5:27 PM CST
Nautical Twilight 6:05 AM CST 5:59 PM CST
Astronomical Twilight 5:34 AM CST 6:30 PM CST
Moon 8:08 AM CST (1/13) 7:32 PM CST (1/13)
Length of Visible Light 10h 50m
Length of Day
9h 54m
Waxing Crescent, 5% of the Moon is Illuminated
Jan 13
Waxing Crescent
Jan 18
First Quarter
Jan 26
Full
Feb 3
Last Quarter
Feb 10
New

Hourly Weather History & Observations

Time (CST) Temp. Windchill Dew Point Humidity Pressure Visibility Wind Dir Wind Speed Gust Speed Precip Events Conditions
12:15 AM 68.0 °F - 62.6 °F 83% 29.74 in 10.0 mi South 16.1 mph 25.3 mph N/A   Overcast
12:55 AM 68.0 °F - 62.6 °F 83% 29.74 in 10.0 mi South 16.1 mph 25.3 mph N/A   Overcast
1:15 AM 68.0 °F - 62.6 °F 83% 29.75 in 10.0 mi South 11.5 mph 18.4 mph N/A   Overcast
1:35 AM 62.6 °F - 59.0 °F 88% 29.79 in 3.0 mi NNW 19.6 mph 25.3 mph 0.13 in   Overcast
1:55 AM 55.4 °F - 53.6 °F 94% 29.82 in 1.2 mi NNW 16.1 mph - 0.58 in   Overcast
2:15 AM 50.0 °F - 50.0 °F 100% 29.80 in 2.0 mi North 11.5 mph - 0.17 in   Overcast
3:35 AM 44.6 °F 40.2 °F 44.6 °F 100% 29.88 in 7.0 mi North 8.1 mph - 0.10 in   Overcast
3:55 AM 44.6 °F 39.2 °F 42.8 °F 93% 29.88 in 10.0 mi NNW 10.4 mph - 0.11 in   Overcast
4:35 AM 42.8 °F 37.0 °F 41.0 °F 93% 29.87 in 5.0 mi NNE 10.4 mph - 0.08 in   Overcast
4:55 AM 41.0 °F 35.8 °F 41.0 °F 100% 29.87 in 4.0 mi ENE 8.1 mph - 0.16 in   Overcast
5:15 AM 42.8 °F 39.3 °F 41.0 °F 93% 29.88 in 5.0 mi NE 5.8 mph - 0.05 in   Overcast
5:35 AM 42.8 °F 38.6 °F 41.0 °F 93% 29.87 in 4.0 mi NE 6.9 mph - 0.13 in   Overcast
5:55 AM 42.8 °F 37.5 °F 42.8 °F 100% 29.90 in 5.0 mi NNW 9.2 mph - 0.17 in   Overcast
6:35 AM 41.0 °F 33.5 °F 41.0 °F 100% 29.93 in 3.0 mi NNW 13.8 mph 18.4 mph 0.23 in   Overcast
6:55 AM 39.2 °F 33.6 °F 39.2 °F 100% 29.93 in 5.0 mi North 8.1 mph - 0.26 in   Overcast
7:15 AM 39.2 °F 31.2 °F 37.4 °F 93% 29.89 in 5.0 mi North 13.8 mph - 0.02 in   Overcast
7:35 AM 39.2 °F 30.8 °F 39.2 °F 100% 29.90 in 10.0 mi NNE 15.0 mph 19.6 mph 0.03 in   Overcast
7:55 AM 39.2 °F 31.6 °F 37.4 °F 93% 29.92 in 10.0 mi North 12.7 mph 18.4 mph 0.03 in   Overcast
8:15 AM 39.2 °F 32.5 °F 37.4 °F 93% 29.93 in 10.0 mi North 10.4 mph 16.1 mph N/A   Overcast
8:35 AM 37.4 °F 29.8 °F 37.4 °F 100% 29.94 in 2.0 mi North 11.5 mph - 0.01 in   Overcast
9:15 AM 37.4 °F 29.3 °F 37.4 °F 100% 29.94 in 2.5 mi North 12.7 mph 17.3 mph 0.04 in   Overcast
9:55 AM 37.4 °F 28.2 °F 37.4 °F 100% 29.96 in 3.0 mi North 16.1 mph - 0.21 in   Mostly Cloudy
10:15 AM 37.4 °F 29.8 °F 35.6 °F 93% 29.95 in 8.0 mi NNE 11.5 mph - 0.01 in   Overcast
10:35 AM 37.4 °F 30.8 °F 35.6 °F 93% 29.95 in 8.0 mi NNE 9.2 mph - 0.02 in   Overcast
11:15 AM 37.4 °F 31.4 °F 37.4 °F 100% 29.94 in 8.0 mi North 8.1 mph - 0.01 in   Overcast
11:55 AM 37.4 °F 29.8 °F 35.6 °F 93% 29.94 in 3.0 mi North 11.5 mph - 0.10 in   Overcast
12:15 PM 37.4 °F 30.3 °F 35.6 °F 93% 29.95 in 4.0 mi NNW 10.4 mph - 0.03 in   Overcast
12:35 PM 37.4 °F 28.9 °F 35.6 °F 93% 29.89 in 2.5 mi NNE 13.8 mph - 0.11 in   Mostly Cloudy
12:55 PM 35.6 °F 25.2 °F 35.6 °F 100% 29.97 in 5.0 mi NNW 18.4 mph 23.0 mph 0.13 in   Overcast
1:15 PM 35.6 °F 25.9 °F 32.0 °F 87% 29.98 in 2.0 mi NNW 16.1 mph 20.7 mph 0.04 in   Overcast
1:35 PM 32.0 °F 21.2 °F 32.0 °F 100% 29.98 in 3.0 mi NNW 16.1 mph 23.0 mph 0.09 in   Overcast
1:55 PM 32.0 °F 21.6 °F 32.0 °F 100% 29.99 in 3.0 mi North 15.0 mph 20.7 mph 0.11 in   Overcast
2:15 PM 32.0 °F 22.1 °F 32.0 °F 100% 30.03 in 4.0 mi NNW 13.8 mph 19.6 mph 0.02 in   Mostly Cloudy
2:35 PM 32.0 °F 20.1 °F 32.0 °F 100% 30.01 in 5.0 mi NNW 19.6 mph 23.0 mph 0.03 in   Mostly Cloudy
2:55 PM 32.0 °F 21.2 °F 32.0 °F 100% 30.02 in 10.0 mi North 16.1 mph 20.7 mph 0.03 in   Mostly Cloudy
3:15 PM 32.0 °F 21.6 °F 32.0 °F 100% 30.07 in 7.0 mi NNW 15.0 mph 24.2 mph N/A   Overcast
3:35 PM 32.0 °F 21.6 °F 32.0 °F 100% 30.07 in 10.0 mi NNW 15.0 mph - N/A   Overcast
3:55 PM 32.0 °F 21.2 °F 30.2 °F 93% 30.13 in 10.0 mi NW 16.1 mph 28.8 mph N/A   Overcast
4:15 PM 32.0 °F 22.5 °F 30.2 °F 93% 30.13 in 10.0 mi NNW 12.7 mph 28.8 mph N/A   Overcast
4:35 PM 32.0 °F 22.5 °F 28.4 °F 87% 30.14 in 10.0 mi North 12.7 mph 18.4 mph N/A   Overcast
4:55 PM 32.0 °F 22.1 °F 28.4 °F 87% 30.14 in 10.0 mi NNW 13.8 mph 17.3 mph N/A   Overcast
5:15 PM 32.0 °F 22.5 °F 28.4 °F 87% 30.16 in 10.0 mi NNW 12.7 mph 16.1 mph N/A   Overcast
5:35 PM 32.0 °F 24.8 °F 28.4 °F 87% 30.17 in 10.0 mi NNW 8.1 mph - N/A   Overcast
5:55 PM 32.0 °F 22.5 °F 28.4 °F 87% 30.18 in 10.0 mi NNW 12.7 mph 18.4 mph N/A   Overcast
6:15 PM 32.0 °F 22.1 °F 28.4 °F 87% 30.17 in 10.0 mi NNW 13.8 mph - N/A   Overcast
6:35 PM 32.0 °F 23.6 °F 28.4 °F 87% 30.18 in 10.0 mi North 10.4 mph 16.1 mph N/A   Overcast
6:55 PM 32.0 °F 22.1 °F 26.6 °F 80% 30.19 in 10.0 mi NNW 13.8 mph 18.4 mph N/A   Overcast
7:15 PM 30.2 °F 21.3 °F 26.6 °F 86% 30.20 in 10.0 mi NNW 10.4 mph - N/A   Mostly Cloudy
7:35 PM 30.2 °F 20.2 °F 26.6 °F 86% 30.20 in 10.0 mi North 12.7 mph 17.3 mph N/A   Overcast
7:55 PM 28.4 °F 18.0 °F 24.8 °F 86% 30.21 in 10.0 mi NNW 12.7 mph - N/A   Mostly Cloudy
8:15 PM 28.4 °F 18.5 °F 24.8 °F 86% 30.22 in 10.0 mi NNW 11.5 mph - N/A   Mostly Cloudy
8:35 PM 28.4 °F 19.7 °F 24.8 °F 86% 30.23 in 10.0 mi North 9.2 mph - N/A   Mostly Cloudy
8:55 PM 28.4 °F 21.2 °F 24.8 °F 86% 30.23 in 10.0 mi North 6.9 mph - N/A   Mostly Cloudy
9:15 PM 28.4 °F 18.5 °F 23.0 °F 80% 30.24 in 10.0 mi North 11.5 mph - N/A   Mostly Cloudy
9:35 PM 26.6 °F 16.2 °F 23.0 °F 86% 30.25 in 10.0 mi North 11.5 mph - N/A   Partly Cloudy
9:55 PM 26.6 °F 18.2 °F 23.0 °F 86% 30.26 in 10.0 mi North 8.1 mph - N/A   Mostly Cloudy
10:15 PM 26.6 °F 17.5 °F 23.0 °F 86% 30.27 in 10.0 mi North 9.2 mph - N/A   Overcast
10:35 PM 26.6 °F 15.7 °F 23.0 °F 86% 30.28 in 10.0 mi North 12.7 mph 16.1 mph N/A   Overcast
10:55 PM 26.6 °F 15.7 °F 21.2 °F 80% 30.28 in 10.0 mi North 12.7 mph - N/A   Overcast
11:15 PM 26.6 °F 15.2 °F 21.2 °F 80% 30.29 in 10.0 mi North 13.8 mph - N/A   Overcast
11:35 PM 26.6 °F 16.8 °F 21.2 °F 80% 30.29 in 10.0 mi North 10.4 mph 18.4 mph N/A   Overcast
11:55 PM 26.6 °F 15.2 °F 21.2 °F 80% 30.30 in 10.0 mi North 13.8 mph - N/A   Overcast